HP: University of Magic Arts

Объявление

Добро пожаловать в магический Лондон!
В игре: 2025 год, сентябрь. В УМИ начинается юбилейный учебный год.

Рейтинг Ролевых Ресурсов - RPG TOP Рейтинг форумов Forum-top.ru Palantir

Информация о пользователе

Привет, Гость! Войдите или зарегистрируйтесь.


Вы здесь » HP: University of Magic Arts » Прошлое и будущее


Прошлое и будущее

Тем 1 страница 30 из 42

Тема Ответов Просмотров Последнее сообщение
1 Важно: Закрыта Шаблон эпизода  Magic
0 165 2017-12-05 13:15:50  Magic
2 If the moment ever comes  Blaise Zabini
22 225 Сегодня 01:03:42  Jennifer Williams
13 163 Вчера 11:02:58  Erika Wilson
3 50 Вчера 08:49:34  Theobald Travers
31 365 2018-10-16 20:23:36  Ethan Travers
1 40 2018-10-16 17:57:01  Rita Skeeter
7 Out of Hell  Farran Moran
1 31 2018-10-14 19:14:03  Ethan Travers
7 125 2018-10-14 18:47:14  Ethan Travers
13 172 2018-10-14 15:38:15  Blaise Zabini
0 10 2018-10-14 08:40:49  Rolf Scamander
7 89 2018-10-13 20:14:43  Julian Ford
12 Лунный свет  Harry Potter
11 154 2018-10-12 22:16:09  Luna Scamander
2 72 2018-10-12 20:21:15  Luna Scamander
42 581 2018-10-11 10:21:02  Theobald Travers
19 220 2018-10-11 00:22:03  Teddy Lupin
16 Closer  Harry Potter
4 57 2018-10-09 05:30:52  Ginny Potter
17 Going Under  Farran Moran
2 37 2018-10-07 13:59:32  Farran Moran
18 Under the mistletoe  Julian Ford
13 147 2018-09-30 04:50:15  Julian Ford
19 More than partner  Teddy Lupin
2 44 2018-09-30 01:51:28  Teddy Lupin
20 A big little mermaid  Luna Scamander
3 42 2018-09-24 20:16:18  Rolf Scamander
7 122 2018-09-22 20:08:30  Vivien Lafor
9 85 2018-09-21 16:48:13  Fred Weasley
2 35 2018-09-16 22:28:48  James Potter
7 139 2018-09-15 10:42:50  Rosaline Hogarth
9 165 2018-09-15 00:24:41  Farran Moran
2 39 2018-09-14 14:35:13  Scorpius Malfoy
15 233 2018-09-03 21:23:58  Luna Scamander
5 96 2018-08-25 14:50:29  Teddy Lupin
29 Chaque chose en son temps  Albert Flint
5 133 2018-08-24 22:34:26  Vivien Lafor
30 10 галлеонов  Ruby Morrison
2 60 2018-08-23 22:56:38  Ruby Morrison

Вы здесь » HP: University of Magic Arts » Прошлое и будущее